sensor_id;sensor_type;location;lat;lon;timestamp;temperature;humidity
16521;DHT22;8373;48.110;11.522;2023-02-15T00:01:29;4.20;84.10
16521;DHT22;8373;48.110;11.522;2023-02-15T00:03:56;4.10;84.20
16521;DHT22;8373;48.110;11.522;2023-02-15T00:06:23;4.10;84.20
16521;DHT22;8373;48.110;11.522;2023-02-15T00:08:50;4.00;84.20
16521;DHT22;8373;48.110;11.522;2023-02-15T00:11:18;3.90;84.10
16521;DHT22;8373;48.110;11.522;2023-02-15T00:14:07;3.90;84.70
16521;DHT22;8373;48.110;11.522;2023-02-15T00:16:34;4.00;85.20
16521;DHT22;8373;48.110;11.522;2023-02-15T00:19:02;4.00;84.60
16521;DHT22;8373;48.110;11.522;2023-02-15T00:21:29;4.00;84.20
16521;DHT22;8373;48.110;11.522;2023-02-15T00:23:57;4.00;83.90
16521;DHT22;8373;48.110;11.522;2023-02-15T00:26:25;3.90;83.60
16521;DHT22;8373;48.110;11.522;2023-02-15T00:28:52;3.80;83.80
16521;DHT22;8373;48.110;11.522;2023-02-15T00:31:21;3.70;83.70
16521;DHT22;8373;48.110;11.522;2023-02-15T00:33:48;3.50;83.90
16521;DHT22;8373;48.110;11.522;2023-02-15T00:36:15;3.50;84.80
16521;DHT22;8373;48.110;11.522;2023-02-15T00:38:42;3.40;85.00
16521;DHT22;8373;48.110;11.522;2023-02-15T00:41:09;3.30;85.10
16521;DHT22;8373;48.110;11.522;2023-02-15T00:43:36;3.40;86.00
16521;DHT22;8373;48.110;11.522;2023-02-15T00:46:04;3.40;86.10
16521;DHT22;8373;48.110;11.522;2023-02-15T00:48:33;3.40;85.90
16521;DHT22;8373;48.110;11.522;2023-02-15T00:51:00;3.50;85.70
16521;DHT22;8373;48.110;11.522;2023-02-15T00:53:28;3.50;85.40
16521;DHT22;8373;48.110;11.522;2023-02-15T00:55:56;3.50;85.90
16521;DHT22;8373;48.110;11.522;2023-02-15T00:58:23;3.40;84.90
16521;DHT22;8373;48.110;11.522;2023-02-15T01:00:51;3.40;85.10
16521;DHT22;8373;48.110;11.522;2023-02-15T01:03:19;3.30;85.20
16521;DHT22;8373;48.110;11.522;2023-02-15T01:05:49;3.30;86.00
16521;DHT22;8373;48.110;11.522;2023-02-15T01:08:16;3.30;86.20
16521;DHT22;8373;48.110;11.522;2023-02-15T01:10:43;3.30;86.00
16521;DHT22;8373;48.110;11.522;2023-02-15T01:13:13;3.30;85.70
16521;DHT22;8373;48.110;11.522;2023-02-15T01:15:41;3.30;85.90
16521;DHT22;8373;48.110;11.522;2023-02-15T01:18:08;3.20;85.50
16521;DHT22;8373;48.110;11.522;2023-02-15T01:20:37;3.10;85.40
16521;DHT22;8373;48.110;11.522;2023-02-15T01:23:08;3.00;85.50
16521;DHT22;8373;48.110;11.522;2023-02-15T01:25:35;2.90;85.70
16521;DHT22;8373;48.110;11.522;2023-02-15T01:28:03;2.70;85.80
16521;DHT22;8373;48.110;11.522;2023-02-15T01:30:30;2.50;86.40
16521;DHT22;8373;48.110;11.522;2023-02-15T01:32:57;2.50;86.90
16521;DHT22;8373;48.110;11.522;2023-02-15T01:35:24;2.30;86.50
16521;DHT22;8373;48.110;11.522;2023-02-15T01:37:51;2.20;87.30
16521;DHT22;8373;48.110;11.522;2023-02-15T01:40:19;2.10;87.80
16521;DHT22;8373;48.110;11.522;2023-02-15T01:42:50;2.10;88.10
16521;DHT22;8373;48.110;11.522;2023-02-15T01:45:23;2.10;88.30
16521;DHT22;8373;48.110;11.522;2023-02-15T01:47:54;2.20;88.70
16521;DHT22;8373;48.110;11.522;2023-02-15T01:50:27;2.10;87.80
16521;DHT22;8373;48.110;11.522;2023-02-15T01:52:57;1.90;87.80
16521;DHT22;8373;48.110;11.522;2023-02-15T01:55:30;1.90;88.80
16521;DHT22;8373;48.110;11.522;2023-02-15T01:57:58;1.90;89.10
16521;DHT22;8373;48.110;11.522;2023-02-15T02:00:26;2.00;89.30
16521;DHT22;8373;48.110;11.522;2023-02-15T02:02:54;1.90;88.70
16521;DHT22;8373;48.110;11.522;2023-02-15T02:05:22;1.90;88.50
16521;DHT22;8373;48.110;11.522;2023-02-15T02:07:51;1.90;88.70
16521;DHT22;8373;48.110;11.522;2023-02-15T02:10:20;1.80;88.10
16521;DHT22;8373;48.110;11.522;2023-02-15T02:12:50;1.80;88.80
16521;DHT22;8373;48.110;11.522;2023-02-15T02:15:23;1.90;88.90
16521;DHT22;8373;48.110;11.522;2023-02-15T02:18:03;2.10;88.90
16521;DHT22;8373;48.110;11.522;2023-02-15T02:20:53;2.10;88.10
16521;DHT22;8373;48.110;11.522;2023-02-15T02:35:24;2.40;86.30
16521;DHT22;8373;48.110;11.522;2023-02-15T02:38:03;2.50;85.80
16521;DHT22;8373;48.110;11.522;2023-02-15T02:40:41;2.60;85.20
16521;DHT22;8373;48.110;11.522;2023-02-15T02:43:18;2.70;84.80
16521;DHT22;8373;48.110;11.522;2023-02-15T02:45:51;2.70;84.20
16521;DHT22;8373;48.110;11.522;2023-02-15T02:48:22;2.80;84.20
16521;DHT22;8373;48.110;11.522;2023-02-15T02:50:52;2.90;84.00
16521;DHT22;8373;48.110;11.522;2023-02-15T02:53:19;3.00;83.20
16521;DHT22;8373;48.110;11.522;2023-02-15T02:55:48;3.00;82.40
16521;DHT22;8373;48.110;11.522;2023-02-15T02:58:19;2.90;81.20
16521;DHT22;8373;48.110;11.522;2023-02-15T03:00:50;2.90;81.90
16521;DHT22;8373;48.110;11.522;2023-02-15T03:03:24;2.90;81.90
16521;DHT22;8373;48.110;11.522;2023-02-15T03:05:57;2.90;82.30
16521;DHT22;8373;48.110;11.522;2023-02-15T03:08:29;3.00;82.10
16521;DHT22;8373;48.110;11.522;2023-02-15T03:11:00;2.90;81.20
16521;DHT22;8373;48.110;11.522;2023-02-15T03:13:28;2.90;81.70
16521;DHT22;8373;48.110;11.522;2023-02-15T03:15:55;2.90;81.90
16521;DHT22;8373;48.110;11.522;2023-02-15T03:18:44;3.00;82.00
16521;DHT22;8373;48.110;11.522;2023-02-15T03:21:21;3.00;81.60
16521;DHT22;8373;48.110;11.522;2023-02-15T03:23:53;3.00;81.50
16521;DHT22;8373;48.110;11.522;2023-02-15T03:26:21;3.10;81.30
16521;DHT22;8373;48.110;11.522;2023-02-15T03:28:50;3.10;80.80
16521;DHT22;8373;48.110;11.522;2023-02-15T03:31:21;3.10;79.80
16521;DHT22;8373;48.110;11.522;2023-02-15T03:33:54;3.10;80.40
16521;DHT22;8373;48.110;11.522;2023-02-15T03:36:28;2.90;80.30
16521;DHT22;8373;48.110;11.522;2023-02-15T03:38:59;2.90;80.50
16521;DHT22;8373;48.110;11.522;2023-02-15T03:41:33;2.90;80.60
16521;DHT22;8373;48.110;11.522;2023-02-15T03:44:04;2.90;80.90
16521;DHT22;8373;48.110;11.522;2023-02-15T03:46:37;3.00;81.40
16521;DHT22;8373;48.110;11.522;2023-02-15T03:49:08;2.90;81.20
16521;DHT22;8373;48.110;11.522;2023-02-15T03:51:40;3.00;81.40
16521;DHT22;8373;48.110;11.522;2023-02-15T03:54:10;3.10;80.90
16521;DHT22;8373;48.110;11.522;2023-02-15T03:56:40;3.10;80.70
16521;DHT22;8373;48.110;11.522;2023-02-15T03:59:28;3.00;80.30
16521;DHT22;8373;48.110;11.522;2023-02-15T04:02:18;2.90;80.50
16521;DHT22;8373;48.110;11.522;2023-02-15T04:04:47;2.80;81.10
16521;DHT22;8373;48.110;11.522;2023-02-15T04:07:15;2.80;81.50
16521;DHT22;8373;48.110;11.522;2023-02-15T04:09:42;2.90;81.90
16521;DHT22;8373;48.110;11.522;2023-02-15T04:12:27;2.80;81.70
16521;DHT22;8373;48.110;11.522;2023-02-15T04:14:54;2.80;81.90
16521;DHT22;8373;48.110;11.522;2023-02-15T04:17:50;2.90;81.90
16521;DHT22;8373;48.110;11.522;2023-02-15T04:20:17;2.90;81.60
16521;DHT22;8373;48.110;11.522;2023-02-15T04:23:05;2.90;81.60
16521;DHT22;8373;48.110;11.522;2023-02-15T04:25:50;2.90;81.80
16521;DHT22;8373;48.110;11.522;2023-02-15T04:28:17;3.00;81.80
16521;DHT22;8373;48.110;11.522;2023-02-15T04:30:43;3.00;81.70
16521;DHT22;8373;48.110;11.522;2023-02-15T04:33:10;3.00;81.60
16521;DHT22;8373;48.110;11.522;2023-02-15T04:35:37;3.00;81.50
16521;DHT22;8373;48.110;11.522;2023-02-15T04:38:06;3.10;81.80
16521;DHT22;8373;48.110;11.522;2023-02-15T04:40:32;3.10;81.60
16521;DHT22;8373;48.110;11.522;2023-02-15T04:42:59;3.10;81.00
16521;DHT22;8373;48.110;11.522;2023-02-15T04:45:26;2.90;80.50
16521;DHT22;8373;48.110;11.522;2023-02-15T04:47:53;2.90;80.70
16521;DHT22;8373;48.110;11.522;2023-02-15T04:50:20;2.90;81.00
16521;DHT22;8373;48.110;11.522;2023-02-15T04:52:47;2.90;81.00
16521;DHT22;8373;48.110;11.522;2023-02-15T04:55:16;3.00;81.10
16521;DHT22;8373;48.110;11.522;2023-02-15T04:57:43;3.00;80.70
16521;DHT22;8373;48.110;11.522;2023-02-15T05:00:10;2.90;80.40
16521;DHT22;8373;48.110;11.522;2023-02-15T05:02:37;2.90;81.00
16521;DHT22;8373;48.110;11.522;2023-02-15T05:05:05;2.90;81.00
16521;DHT22;8373;48.110;11.522;2023-02-15T05:07:32;2.80;80.30
16521;DHT22;8373;48.110;11.522;2023-02-15T05:09:59;2.60;80.00
16521;DHT22;8373;48.110;11.522;2023-02-15T05:12:27;2.60;81.20
16521;DHT22;8373;48.110;11.522;2023-02-15T05:14:54;2.40;81.10
16521;DHT22;8373;48.110;11.522;2023-02-15T05:17:21;2.30;81.50
16521;DHT22;8373;48.110;11.522;2023-02-15T05:19:48;2.20;82.40
16521;DHT22;8373;48.110;11.522;2023-02-15T05:22:15;2.30;83.00
16521;DHT22;8373;48.110;11.522;2023-02-15T05:24:42;2.30;83.00
16521;DHT22;8373;48.110;11.522;2023-02-15T05:27:27;2.40;83.00
16521;DHT22;8373;48.110;11.522;2023-02-15T05:30:13;2.50;82.90
16521;DHT22;8373;48.110;11.522;2023-02-15T05:32:40;2.50;82.10
16521;DHT22;8373;48.110;11.522;2023-02-15T05:35:07;2.60;82.20
16521;DHT22;8373;48.110;11.522;2023-02-15T05:37:34;2.60;82.20
16521;DHT22;8373;48.110;11.522;2023-02-15T05:40:01;2.70;81.90
16521;DHT22;8373;48.110;11.522;2023-02-15T05:42:29;2.70;81.30
16521;DHT22;8373;48.110;11.522;2023-02-15T05:44:56;2.70;81.20
16521;DHT22;8373;48.110;11.522;2023-02-15T05:47:23;2.80;80.90
16521;DHT22;8373;48.110;11.522;2023-02-15T05:49:50;2.90;80.60
16521;DHT22;8373;48.110;11.522;2023-02-15T05:52:17;2.90;80.00
16521;DHT22;8373;48.110;11.522;2023-02-15T05:54:44;2.70;79.30
16521;DHT22;8373;48.110;11.522;2023-02-15T05:57:11;2.70;79.80
16521;DHT22;8373;48.110;11.522;2023-02-15T05:59:39;2.70;80.10
16521;DHT22;8373;48.110;11.522;2023-02-15T06:02:06;2.70;80.40
16521;DHT22;8373;48.110;11.522;2023-02-15T06:04:33;2.70;79.80
16521;DHT22;8373;48.110;11.522;2023-02-15T06:07:00;2.50;79.80
16521;DHT22;8373;48.110;11.522;2023-02-15T06:09:27;2.30;80.70
16521;DHT22;8373;48.110;11.522;2023-02-15T06:11:55;2.30;81.40
16521;DHT22;8373;48.110;11.522;2023-02-15T06:14:22;2.30;82.30
16521;DHT22;8373;48.110;11.522;2023-02-15T06:16:50;2.30;82.70
16521;DHT22;8373;48.110;11.522;2023-02-15T06:19:17;2.40;82.70
16521;DHT22;8373;48.110;11.522;2023-02-15T06:21:45;2.40;82.40
16521;DHT22;8373;48.110;11.522;2023-02-15T06:24:12;2.30;81.30
16521;DHT22;8373;48.110;11.522;2023-02-15T06:26:38;2.30;81.00
16521;DHT22;8373;48.110;11.522;2023-02-15T06:29:05;2.10;80.20
16521;DHT22;8373;48.110;11.522;2023-02-15T06:31:32;1.90;81.40
16521;DHT22;8373;48.110;11.522;2023-02-15T06:34:01;1.80;82.50
16521;DHT22;8373;48.110;11.522;2023-02-15T06:36:28;2.00;83.80
16521;DHT22;8373;48.110;11.522;2023-02-15T06:38:55;2.00;83.20
16521;DHT22;8373;48.110;11.522;2023-02-15T06:41:22;2.10;83.30
16521;DHT22;8373;48.110;11.522;2023-02-15T06:43:49;2.20;83.30
16521;DHT22;8373;48.110;11.522;2023-02-15T06:46:17;2.20;83.40
16521;DHT22;8373;48.110;11.522;2023-02-15T06:48:45;2.10;83.10
16521;DHT22;8373;48.110;11.522;2023-02-15T06:51:13;1.90;83.20
16521;DHT22;8373;48.110;11.522;2023-02-15T06:53:40;1.70;83.50
16521;DHT22;8373;48.110;11.522;2023-02-15T06:56:08;1.30;83.70
16521;DHT22;8373;48.110;11.522;2023-02-15T06:58:36;1.10;84.80
16521;DHT22;8373;48.110;11.522;2023-02-15T07:01:03;1.10;86.60
16521;DHT22;8373;48.110;11.522;2023-02-15T07:03:31;1.30;87.50
16521;DHT22;8373;48.110;11.522;2023-02-15T07:06:00;1.40;87.00
16521;DHT22;8373;48.110;11.522;2023-02-15T07:08:29;1.40;85.60
16521;DHT22;8373;48.110;11.522;2023-02-15T07:10:56;1.60;86.60
16521;DHT22;8373;48.110;11.522;2023-02-15T07:13:44;1.80;86.30
16521;DHT22;8373;48.110;11.522;2023-02-15T07:16:10;1.90;85.30
16521;DHT22;8373;48.110;11.522;2023-02-15T07:18:37;2.10;85.40
16521;DHT22;8373;48.110;11.522;2023-02-15T07:21:05;2.20;84.50
16521;DHT22;8373;48.110;11.522;2023-02-15T07:23:35;2.30;83.60
16521;DHT22;8373;48.110;11.522;2023-02-15T07:26:02;2.30;82.50
16521;DHT22;8373;48.110;11.522;2023-02-15T07:28:29;2.40;82.00
16521;DHT22;8373;48.110;11.522;2023-02-15T07:30:56;2.50;81.10
16521;DHT22;8373;48.110;11.522;2023-02-15T07:33:24;2.30;79.90
16521;DHT22;8373;48.110;11.522;2023-02-15T07:35:54;2.10;80.50
16521;DHT22;8373;48.110;11.522;2023-02-15T07:38:23;2.00;81.60
16521;DHT22;8373;48.110;11.522;2023-02-15T07:40:51;2.00;82.10
16521;DHT22;8373;48.110;11.522;2023-02-15T07:43:18;2.10;83.00
16521;DHT22;8373;48.110;11.522;2023-02-15T07:45:45;2.30;81.50
16521;DHT22;8373;48.110;11.522;2023-02-15T07:48:12;2.40;81.30
16521;DHT22;8373;48.110;11.522;2023-02-15T07:50:39;2.60;81.40
16521;DHT22;8373;48.110;11.522;2023-02-15T07:53:06;2.70;80.50
16521;DHT22;8373;48.110;11.522;2023-02-15T07:55:33;2.70;79.80
16521;DHT22;8373;48.110;11.522;2023-02-15T07:58:01;3.00;80.10
16521;DHT22;8373;48.110;11.522;2023-02-15T08:00:28;3.20;79.10
16521;DHT22;8373;48.110;11.522;2023-02-15T08:02:56;3.40;78.00
16521;DHT22;8373;48.110;11.522;2023-02-15T08:05:42;3.50;76.80
16521;DHT22;8373;48.110;11.522;2023-02-15T08:08:10;3.70;76.30
16521;DHT22;8373;48.110;11.522;2023-02-15T08:10:58;3.80;75.70
16521;DHT22;8373;48.110;11.522;2023-02-15T08:13:44;3.90;75.70
16521;DHT22;8373;48.110;11.522;2023-02-15T08:16:24;4.10;74.90
16521;DHT22;8373;48.110;11.522;2023-02-15T08:18:51;4.10;73.90
16521;DHT22;8373;48.110;11.522;2023-02-15T08:21:18;4.00;73.10
16521;DHT22;8373;48.110;11.522;2023-02-15T08:23:46;3.90;73.30
16521;DHT22;8373;48.110;11.522;2023-02-15T08:26:13;3.70;73.70
16521;DHT22;8373;48.110;11.522;2023-02-15T08:28:41;3.60;74.60
16521;DHT22;8373;48.110;11.522;2023-02-15T08:31:11;3.50;75.40
16521;DHT22;8373;48.110;11.522;2023-02-15T08:33:40;3.50;76.60
16521;DHT22;8373;48.110;11.522;2023-02-15T08:36:09;3.60;77.50
16521;DHT22;8373;48.110;11.522;2023-02-15T08:38:36;3.70;78.10
16521;DHT22;8373;48.110;11.522;2023-02-15T08:41:12;3.90;78.70
16521;DHT22;8373;48.110;11.522;2023-02-15T08:43:39;4.10;77.90
16521;DHT22;8373;48.110;11.522;2023-02-15T08:46:07;4.20;74.90
16521;DHT22;8373;48.110;11.522;2023-02-15T08:48:36;4.10;74.50
16521;DHT22;8373;48.110;11.522;2023-02-15T08:51:08;4.00;74.90
16521;DHT22;8373;48.110;11.522;2023-02-15T08:53:37;4.20;74.90
16521;DHT22;8373;48.110;11.522;2023-02-15T08:56:04;4.50;74.50
16521;DHT22;8373;48.110;11.522;2023-02-15T08:58:31;5.30;75.50
16521;DHT22;8373;48.110;11.522;2023-02-15T09:00:58;6.50;73.10
16521;DHT22;8373;48.110;11.522;2023-02-15T09:03:27;8.70;67.80
16521;DHT22;8373;48.110;11.522;2023-02-15T09:06:00;11.30;62.00
16521;DHT22;8373;48.110;11.522;2023-02-15T09:08:27;14.10;51.10
16521;DHT22;8373;48.110;11.522;2023-02-15T09:11:03;15.80;45.00
16521;DHT22;8373;48.110;11.522;2023-02-15T09:13:30;16.90;40.80
16521;DHT22;8373;48.110;11.522;2023-02-15T09:15:59;17.10;38.80
16521;DHT22;8373;48.110;11.522;2023-02-15T09:18:26;17.90;37.70
16521;DHT22;8373;48.110;11.522;2023-02-15T09:20:54;19.30;37.00
16521;DHT22;8373;48.110;11.522;2023-02-15T09:23:23;21.00;34.00
16521;DHT22;8373;48.110;11.522;2023-02-15T09:25:50;22.30;32.00
16521;DHT22;8373;48.110;11.522;2023-02-15T09:28:17;23.40;29.50
16521;DHT22;8373;48.110;11.522;2023-02-15T09:30:44;23.70;27.70
16521;DHT22;8373;48.110;11.522;2023-02-15T09:33:10;24.30;27.20
16521;DHT22;8373;48.110;11.522;2023-02-15T09:35:37;25.60;26.70
16521;DHT22;8373;48.110;11.522;2023-02-15T09:38:04;26.50;25.20
16521;DHT22;8373;48.110;11.522;2023-02-15T09:40:38;26.90;24.20
16521;DHT22;8373;48.110;11.522;2023-02-15T09:43:27;27.00;23.90
16521;DHT22;8373;48.110;11.522;2023-02-15T09:46:11;27.20;23.60
16521;DHT22;8373;48.110;11.522;2023-02-15T09:48:41;27.70;23.40
16521;DHT22;8373;48.110;11.522;2023-02-15T09:51:38;28.50;22.90
16521;DHT22;8373;48.110;11.522;2023-02-15T09:54:15;28.90;22.30
16521;DHT22;8373;48.110;11.522;2023-02-15T09:56:53;29.20;21.70
16521;DHT22;8373;48.110;11.522;2023-02-15T09:59:30;29.30;21.70
16521;DHT22;8373;48.110;11.522;2023-02-15T10:02:09;29.50;21.40
16521;DHT22;8373;48.110;11.522;2023-02-15T10:04:58;30.10;21.30
16521;DHT22;8373;48.110;11.522;2023-02-15T10:07:42;30.90;20.50
16521;DHT22;8373;48.110;11.522;2023-02-15T10:10:19;31.30;20.10
16521;DHT22;8373;48.110;11.522;2023-02-15T10:13:04;31.70;19.90
16521;DHT22;8373;48.110;11.522;2023-02-15T10:15:44;31.70;19.60
16521;DHT22;8373;48.110;11.522;2023-02-15T10:18:45;31.80;19.50
16521;DHT22;8373;48.110;11.522;2023-02-15T10:21:23;32.40;19.30
16521;DHT22;8373;48.110;11.522;2023-02-15T10:24:07;33.10;18.80
16521;DHT22;8373;48.110;11.522;2023-02-15T10:26:43;33.30;18.50
16521;DHT22;8373;48.110;11.522;2023-02-15T10:29:16;33.60;18.40
16521;DHT22;8373;48.110;11.522;2023-02-15T10:31:50;33.60;18.80
16521;DHT22;8373;48.110;11.522;2023-02-15T10:34:19;33.70;18.30
16521;DHT22;8373;48.110;11.522;2023-02-15T10:36:58;33.60;18.40
16521;DHT22;8373;48.110;11.522;2023-02-15T10:39:36;33.80;18.20
16521;DHT22;8373;48.110;11.522;2023-02-15T10:42:10;34.00;18.00
16521;DHT22;8373;48.110;11.522;2023-02-15T10:44:50;34.10;17.80
16521;DHT22;8373;48.110;11.522;2023-02-15T10:47:47;34.30;17.80
16521;DHT22;8373;48.110;11.522;2023-02-15T10:50:27;34.60;17.40
16521;DHT22;8373;48.110;11.522;2023-02-15T10:53:13;34.70;17.50
16521;DHT22;8373;48.110;11.522;2023-02-15T10:55:52;35.00;17.20
16521;DHT22;8373;48.110;11.522;2023-02-15T10:58:29;35.30;17.00
16521;DHT22;8373;48.110;11.522;2023-02-15T11:01:05;35.40;16.80
16521;DHT22;8373;48.110;11.522;2023-02-15T11:03:46;35.80;16.50
16521;DHT22;8373;48.110;11.522;2023-02-15T11:06:17;35.60;16.70
16521;DHT22;8373;48.110;11.522;2023-02-15T11:08:48;35.20;16.70
16521;DHT22;8373;48.110;11.522;2023-02-15T11:11:21;35.30;16.90
16521;DHT22;8373;48.110;11.522;2023-02-15T11:13:52;35.60;16.70
16521;DHT22;8373;48.110;11.522;2023-02-15T11:16:25;36.00;16.50
16521;DHT22;8373;48.110;11.522;2023-02-15T11:18:55;36.60;16.40
16521;DHT22;8373;48.110;11.522;2023-02-15T11:21:27;36.50;16.20
16521;DHT22;8373;48.110;11.522;2023-02-15T11:23:55;36.80;16.10
16521;DHT22;8373;48.110;11.522;2023-02-15T11:26:28;36.50;15.90
16521;DHT22;8373;48.110;11.522;2023-02-15T11:28:59;36.40;16.00
16521;DHT22;8373;48.110;11.522;2023-02-15T11:31:37;36.70;16.20
16521;DHT22;8373;48.110;11.522;2023-02-15T11:34:15;36.50;16.10
16521;DHT22;8373;48.110;11.522;2023-02-15T11:36:45;35.70;16.70
16521;DHT22;8373;48.110;11.522;2023-02-15T11:39:15;35.00;16.70
16521;DHT22;8373;48.110;11.522;2023-02-15T11:41:47;33.70;17.20
16521;DHT22;8373;48.110;11.522;2023-02-15T11:44:20;33.10;17.70
16521;DHT22;8373;48.110;11.522;2023-02-15T11:46:50;33.70;17.70
16521;DHT22;8373;48.110;11.522;2023-02-15T11:49:23;34.50;17.40
16521;DHT22;8373;48.110;11.522;2023-02-15T11:51:52;34.70;17.20
16521;DHT22;8373;48.110;11.522;2023-02-15T11:54:23;34.30;17.40
16521;DHT22;8373;48.110;11.522;2023-02-15T11:56:51;33.90;17.70
16521;DHT22;8373;48.110;11.522;2023-02-15T11:59:24;33.80;17.70
16521;DHT22;8373;48.110;11.522;2023-02-15T12:01:57;33.40;17.70
16521;DHT22;8373;48.110;11.522;2023-02-15T12:04:25;32.90;18.00
16521;DHT22;8373;48.110;11.522;2023-02-15T12:06:57;32.50;18.30
16521;DHT22;8373;48.110;11.522;2023-02-15T12:09:31;32.30;18.60
16521;DHT22;8373;48.110;11.522;2023-02-15T12:12:19;32.10;19.00
16521;DHT22;8373;48.110;11.522;2023-02-15T12:14:48;32.10;19.10
16521;DHT22;8373;48.110;11.522;2023-02-15T12:17:17;32.30;18.80
16521;DHT22;8373;48.110;11.522;2023-02-15T12:19:44;32.10;18.90
16521;DHT22;8373;48.110;11.522;2023-02-15T12:22:20;31.70;19.00
16521;DHT22;8373;48.110;11.522;2023-02-15T12:24:50;31.30;19.50
16521;DHT22;8373;48.110;11.522;2023-02-15T12:27:20;31.20;19.80
16521;DHT22;8373;48.110;11.522;2023-02-15T12:29:50;31.00;20.00
16521;DHT22;8373;48.110;11.522;2023-02-15T12:32:22;30.80;20.10
16521;DHT22;8373;48.110;11.522;2023-02-15T12:34:51;30.50;20.20
16521;DHT22;8373;48.110;11.522;2023-02-15T12:37:22;30.10;20.70
16521;DHT22;8373;48.110;11.522;2023-02-15T12:39:55;29.70;21.00
16521;DHT22;8373;48.110;11.522;2023-02-15T12:42:23;29.20;21.00
16521;DHT22;8373;48.110;11.522;2023-02-15T12:44:58;28.70;21.70
16521;DHT22;8373;48.110;11.522;2023-02-15T12:47:28;28.30;22.00
16521;DHT22;8373;48.110;11.522;2023-02-15T12:50:10;27.50;22.40
16521;DHT22;8373;48.110;11.522;2023-02-15T12:52:43;26.50;22.90
16521;DHT22;8373;48.110;11.522;2023-02-15T12:55:17;25.80;23.80
16521;DHT22;8373;48.110;11.522;2023-02-15T12:57:45;25.00;24.80
16521;DHT22;8373;48.110;11.522;2023-02-15T13:00:27;24.20;25.70
16521;DHT22;8373;48.110;11.522;2023-02-15T13:02:59;23.60;26.00
16521;DHT22;8373;48.110;11.522;2023-02-15T13:05:32;22.80;26.50
16521;DHT22;8373;48.110;11.522;2023-02-15T13:08:02;22.40;27.40
16521;DHT22;8373;48.110;11.522;2023-02-15T13:10:33;22.00;28.60
16521;DHT22;8373;48.110;11.522;2023-02-15T13:13:09;21.50;28.50
16521;DHT22;8373;48.110;11.522;2023-02-15T13:15:39;20.90;29.40
16521;DHT22;8373;48.110;11.522;2023-02-15T13:18:18;20.50;30.00
16521;DHT22;8373;48.110;11.522;2023-02-15T13:20:46;20.10;30.80
16521;DHT22;8373;48.110;11.522;2023-02-15T13:23:25;19.80;31.30
16521;DHT22;8373;48.110;11.522;2023-02-15T13:25:56;19.50;32.00
16521;DHT22;8373;48.110;11.522;2023-02-15T13:28:31;19.20;32.70
16521;DHT22;8373;48.110;11.522;2023-02-15T13:30:59;18.90;33.00
16521;DHT22;8373;48.110;11.522;2023-02-15T13:33:31;18.60;33.70
16521;DHT22;8373;48.110;11.522;2023-02-15T13:36:04;18.50;34.20
16521;DHT22;8373;48.110;11.522;2023-02-15T13:39:05;18.40;34.10
16521;DHT22;8373;48.110;11.522;2023-02-15T13:41:43;18.10;34.50
16521;DHT22;8373;48.110;11.522;2023-02-15T13:44:18;17.80;35.50
16521;DHT22;8373;48.110;11.522;2023-02-15T13:46:55;17.70;36.10
16521;DHT22;8373;48.110;11.522;2023-02-15T13:49:40;17.70;36.40
16521;DHT22;8373;48.110;11.522;2023-02-15T13:52:18;17.70;36.70
16521;DHT22;8373;48.110;11.522;2023-02-15T13:54:57;17.80;37.00
16521;DHT22;8373;48.110;11.522;2023-02-15T13:57:55;17.90;36.80
16521;DHT22;8373;48.110;11.522;2023-02-15T14:00:29;17.90;36.70
16521;DHT22;8373;48.110;11.522;2023-02-15T14:03:28;18.00;36.90
16521;DHT22;8373;48.110;11.522;2023-02-15T14:06:25;18.00;37.30
16521;DHT22;8373;48.110;11.522;2023-02-15T14:09:06;17.80;37.20
16521;DHT22;8373;48.110;11.522;2023-02-15T14:11:42;17.50;37.60
16521;DHT22;8373;48.110;11.522;2023-02-15T14:14:35;17.20;38.50
16521;DHT22;8373;48.110;11.522;2023-02-15T14:17:14;16.90;39.10
16521;DHT22;8373;48.110;11.522;2023-02-15T14:19:45;16.70;39.90
16521;DHT22;8373;48.110;11.522;2023-02-15T14:22:22;16.60;40.60
16521;DHT22;8373;48.110;11.522;2023-02-15T14:25:11;16.50;40.50
16521;DHT22;8373;48.110;11.522;2023-02-15T14:27:49;16.40;41.00
16521;DHT22;8373;48.110;11.522;2023-02-15T14:30:22;16.20;41.20
16521;DHT22;8373;48.110;11.522;2023-02-15T14:32:53;16.00;41.60
16521;DHT22;8373;48.110;11.522;2023-02-15T14:35:23;15.80;42.20
16521;DHT22;8373;48.110;11.522;2023-02-15T14:37:58;15.50;42.90
16521;DHT22;8373;48.110;11.522;2023-02-15T14:40:34;15.40;43.50
16521;DHT22;8373;48.110;11.522;2023-02-15T14:43:30;15.40;43.90
16521;DHT22;8373;48.110;11.522;2023-02-15T14:46:03;15.30;44.20
16521;DHT22;8373;48.110;11.522;2023-02-15T14:48:39;15.30;44.20
16521;DHT22;8373;48.110;11.522;2023-02-15T14:51:09;15.20;44.40
16521;DHT22;8373;48.110;11.522;2023-02-15T14:53:38;15.20;44.70
16521;DHT22;8373;48.110;11.522;2023-02-15T14:56:21;15.20;44.60
16521;DHT22;8373;48.110;11.522;2023-02-15T15:01:52;14.90;45.20
16521;DHT22;8373;48.110;11.522;2023-02-15T15:04:26;14.80;45.40
16521;DHT22;8373;48.110;11.522;2023-02-15T15:07:03;14.80;45.80
16521;DHT22;8373;48.110;11.522;2023-02-15T15:09:37;14.70;45.90
16521;DHT22;8373;48.110;11.522;2023-02-15T15:12:35;14.70;46.00
16521;DHT22;8373;48.110;11.522;2023-02-15T15:15:03;14.70;46.20
16521;DHT22;8373;48.110;11.522;2023-02-15T15:20:47;14.60;46.10
16521;DHT22;8373;48.110;11.522;2023-02-15T15:23:42;14.50;46.30
16521;DHT22;8373;48.110;11.522;2023-02-15T15:26:28;14.40;46.40
16521;DHT22;8373;48.110;11.522;2023-02-15T15:29:00;14.20;46.70
16521;DHT22;8373;48.110;11.522;2023-02-15T15:31:37;14.10;47.00
16521;DHT22;8373;48.110;11.522;2023-02-15T15:34:38;14.00;47.20
16521;DHT22;8373;48.110;11.522;2023-02-15T15:37:51;13.80;47.50
16521;DHT22;8373;48.110;11.522;2023-02-15T15:44:06;13.70;48.30
16521;DHT22;8373;48.110;11.522;2023-02-15T15:47:10;13.60;48.40
16521;DHT22;8373;48.110;11.522;2023-02-15T15:49:39;13.60;48.60
16521;DHT22;8373;48.110;11.522;2023-02-15T15:52:12;13.60;48.60
16521;DHT22;8373;48.110;11.522;2023-02-15T15:54:40;13.50;48.60
16521;DHT22;8373;48.110;11.522;2023-02-15T15:57:16;13.50;48.70
16521;DHT22;8373;48.110;11.522;2023-02-15T15:59:47;13.50;48.90
16521;DHT22;8373;48.110;11.522;2023-02-15T16:02:15;13.30;48.90
16521;DHT22;8373;48.110;11.522;2023-02-15T16:04:43;13.20;49.20
16521;DHT22;8373;48.110;11.522;2023-02-15T16:07:25;13.00;49.50
16521;DHT22;8373;48.110;11.522;2023-02-15T16:09:58;12.80;50.10
16521;DHT22;8373;48.110;11.522;2023-02-15T16:12:26;12.60;50.70
16521;DHT22;8373;48.110;11.522;2023-02-15T16:14:56;12.40;51.00
16521;DHT22;8373;48.110;11.522;2023-02-15T16:17:25;12.20;51.50
16521;DHT22;8373;48.110;11.522;2023-02-15T16:20:02;12.10;51.90
16521;DHT22;8373;48.110;11.522;2023-02-15T16:22:32;12.00;52.20
16521;DHT22;8373;48.110;11.522;2023-02-15T16:25:20;12.00;52.50
16521;DHT22;8373;48.110;11.522;2023-02-15T16:27:50;11.90;52.80
16521;DHT22;8373;48.110;11.522;2023-02-15T16:30:27;11.80;53.00
16521;DHT22;8373;48.110;11.522;2023-02-15T16:33:06;11.70;53.10
16521;DHT22;8373;48.110;11.522;2023-02-15T16:35:37;11.60;53.30